PAS102 WIII-WARR
Flight info
| Callsign | PAS102 |
|---|---|
| Flight time | 0h 57m |
| Altitude | 35000 |
| Route | CA2A CA T3 BA BA1C |
| Aircraft | A320/M-SDE3FGHIRWY/LB1 |
Departure
| Time | 2026-05-06 10:06 |
|---|---|
| Airport | Soekarno-Hatta International Airport (WIII) |
Arrival
| Time | 2026-05-06 11:03 |
|---|---|
| Airport | Juanda International Airport (WARR) |
| Time | Latitude | Longitude | Altitude | Speed | Heading |
|---|---|---|---|---|---|
| 2026-05-06 09:37 | -6.11622 | 106.66829 | 31 ft | 0 kts | 158° |
| 2026-05-06 09:47 | -6.11622 | 106.66828 | 31 ft | 0 kts | 158° |
| 2026-05-06 09:47 | -6.11622 | 106.66829 | 31 ft | 0 kts | 158° |
| 2026-05-06 09:47 | -6.11622 | 106.66828 | 31 ft | 0 kts | 158° |
| 2026-05-06 09:54 | -6.11616 | 106.66826 | 31 ft | 2 kts | 158° |
| 2026-05-06 09:54 | -6.11597 | 106.66819 | 31 ft | 3 kts | 158° |
| 2026-05-06 09:55 | -6.11578 | 106.66811 | 31 ft | 3 kts | 160° |
| 2026-05-06 09:55 | -6.11559 | 106.66805 | 31 ft | 3 kts | 170° |
| 2026-05-06 09:55 | -6.11539 | 106.66803 | 31 ft | 3 kts | 184° |
| 2026-05-06 09:55 | -6.11519 | 106.66806 | 30 ft | 3 kts | 208° |
| 2026-05-06 09:56 | -6.11506 | 106.66817 | 30 ft | 2 kts | 246° |
| 2026-05-06 09:56 | -6.11502 | 106.66828 | 30 ft | 3 kts | 248° |
| 2026-05-06 09:56 | -6.11497 | 106.66839 | 30 ft | 0 kts | 248° |
| 2026-05-06 09:56 | -6.11497 | 106.66840 | 30 ft | 2 kts | 248° |
| 2026-05-06 09:58 | -6.11497 | 106.66839 | 30 ft | 0 kts | 248° |
| 2026-05-06 09:58 | -6.11499 | 106.66832 | 30 ft | 5 kts | 248° |
| 2026-05-06 09:59 | -6.11521 | 106.66777 | 31 ft | 11 kts | 248° |
| 2026-05-06 09:59 | -6.11554 | 106.66694 | 31 ft | 14 kts | 248° |
| 2026-05-06 09:59 | -6.11593 | 106.66594 | 31 ft | 17 kts | 248° |
| 2026-05-06 09:59 | -6.11638 | 106.66479 | 31 ft | 19 kts | 249° |
| 2026-05-06 10:00 | -6.11593 | 106.66389 | 32 ft | 17 kts | 337° |
| 2026-05-06 10:00 | -6.11515 | 106.66355 | 31 ft | 18 kts | 336° |
| 2026-05-06 10:00 | -6.11466 | 106.66334 | 31 ft | 18 kts | 337° |
| 2026-05-06 10:00 | -6.11386 | 106.66301 | 31 ft | 18 kts | 339° |
| 2026-05-06 10:01 | -6.11364 | 106.66196 | 32 ft | 18 kts | 249° |
| 2026-05-06 10:01 | -6.11412 | 106.66071 | 32 ft | 20 kts | 249° |
| 2026-05-06 10:01 | -6.11468 | 106.65933 | 32 ft | 22 kts | 248° |
| 2026-05-06 10:01 | -6.11529 | 106.65782 | 32 ft | 24 kts | 248° |
| 2026-05-06 10:02 | -6.11595 | 106.65621 | 33 ft | 26 kts | 248° |
| 2026-05-06 10:02 | -6.11663 | 106.65450 | 33 ft | 27 kts | 248° |
| 2026-05-06 10:02 | -6.11734 | 106.65272 | 34 ft | 28 kts | 248° |
| 2026-05-06 10:02 | -6.11808 | 106.65086 | 35 ft | 29 kts | 248° |
| 2026-05-06 10:03 | -6.11884 | 106.64894 | 35 ft | 30 kts | 248° |
| 2026-05-06 10:03 | -6.11964 | 106.64695 | 36 ft | 31 kts | 249° |
| 2026-05-06 10:03 | -6.12046 | 106.64491 | 35 ft | 32 kts | 248° |
| 2026-05-06 10:03 | -6.12128 | 106.64281 | 37 ft | 33 kts | 248° |
| 2026-05-06 10:04 | -6.12215 | 106.64067 | 37 ft | 33 kts | 248° |
| 2026-05-06 10:04 | -6.12231 | 106.63897 | 38 ft | 18 kts | 313° |
| 2026-05-06 10:04 | -6.12205 | 106.63882 | 39 ft | 0 kts | 341° |
| 2026-05-06 10:04 | -6.12203 | 106.63882 | 39 ft | 1 kts | 342° |
| 2026-05-06 10:05 | -6.12155 | 106.63885 | 36 ft | 14 kts | 19° |
| 2026-05-06 10:05 | -6.12064 | 106.63954 | 37 ft | 18 kts | 58° |
| 2026-05-06 10:05 | -6.11992 | 106.64131 | 37 ft | 54 kts | 68° |
| 2026-05-06 10:05 | -6.11744 | 106.64753 | 38 ft | 131 kts | 70° |
| 2026-05-06 10:06 | -6.11348 | 106.65743 | 380 ft | 160 kts | 66° |
| 2026-05-06 10:06 | -6.10887 | 106.66748 | 1079 ft | 165 kts | 55° |
| 2026-05-06 10:06 | -6.10102 | 106.67664 | 1730 ft | 183 kts | 47° |
| 2026-05-06 10:06 | -6.09193 | 106.68679 | 2318 ft | 207 kts | 49° |
| 2026-05-06 10:07 | -6.08175 | 106.69814 | 2988 ft | 227 kts | 49° |
| 2026-05-06 10:07 | -6.07066 | 106.71044 | 3495 ft | 249 kts | 49° |
| 2026-05-06 10:07 | -6.05853 | 106.72379 | 4035 ft | 265 kts | 49° |
| 2026-05-06 10:07 | -6.04604 | 106.73748 | 4915 ft | 268 kts | 49° |
| 2026-05-06 10:08 | -6.03330 | 106.75143 | 5748 ft | 272 kts | 49° |
| 2026-05-06 10:08 | -6.02042 | 106.76554 | 6359 ft | 276 kts | 49° |
| 2026-05-06 10:08 | -6.00743 | 106.77979 | 6818 ft | 277 kts | 49° |
| 2026-05-06 10:08 | -5.99437 | 106.79414 | 7292 ft | 279 kts | 49° |
| 2026-05-06 10:09 | -5.98328 | 106.80999 | 7766 ft | 278 kts | 69° |
| 2026-05-06 10:09 | -5.97977 | 106.82893 | 8250 ft | 279 kts | 94° |
| 2026-05-06 10:09 | -5.98423 | 106.84782 | 8753 ft | 280 kts | 109° |
| 2026-05-06 10:09 | -5.99070 | 106.86634 | 9246 ft | 282 kts | 109° |
| 2026-05-06 10:10 | -5.99722 | 106.88496 | 9742 ft | 284 kts | 109° |
| 2026-05-06 10:10 | -6.00375 | 106.90379 | 10203 ft | 288 kts | 109° |
| 2026-05-06 10:10 | -6.01044 | 106.92321 | 10678 ft | 301 kts | 109° |
| 2026-05-06 10:10 | -6.01740 | 106.94348 | 11153 ft | 313 kts | 109° |
| 2026-05-06 10:11 | -6.02461 | 106.96450 | 11641 ft | 324 kts | 109° |
| 2026-05-06 10:11 | -6.03204 | 106.98622 | 12129 ft | 334 kts | 109° |
| 2026-05-06 10:11 | -6.03970 | 107.00860 | 12624 ft | 343 kts | 109° |
| 2026-05-06 10:11 | -6.04754 | 107.03150 | 13128 ft | 349 kts | 109° |
| 2026-05-06 10:12 | -6.05549 | 107.05469 | 13631 ft | 352 kts | 109° |
| 2026-05-06 10:12 | -6.06347 | 107.07800 | 14080 ft | 355 kts | 109° |
| 2026-05-06 10:12 | -6.07154 | 107.10157 | 14532 ft | 358 kts | 109° |
| 2026-05-06 10:12 | -6.07967 | 107.12533 | 14996 ft | 361 kts | 108° |
| 2026-05-06 10:13 | -6.08787 | 107.14927 | 15462 ft | 364 kts | 108° |
| 2026-05-06 10:13 | -6.09600 | 107.17304 | 15933 ft | 367 kts | 109° |
| 2026-05-06 10:13 | -6.10575 | 107.19688 | 16415 ft | 370 kts | 113° |
| 2026-05-06 10:13 | -6.11622 | 107.22066 | 16907 ft | 374 kts | 113° |
| 2026-05-06 10:14 | -6.12671 | 107.24465 | 17411 ft | 377 kts | 113° |
| 2026-05-06 10:14 | -6.13728 | 107.26886 | 17909 ft | 380 kts | 112° |
| 2026-05-06 10:14 | -6.14790 | 107.29325 | 18378 ft | 382 kts | 112° |
| 2026-05-06 10:14 | -6.15859 | 107.31778 | 18816 ft | 385 kts | 112° |
| 2026-05-06 10:15 | -6.16937 | 107.34250 | 19265 ft | 387 kts | 113° |
| 2026-05-06 10:15 | -6.18020 | 107.36731 | 19719 ft | 389 kts | 113° |
| 2026-05-06 10:15 | -6.19107 | 107.39224 | 20179 ft | 390 kts | 113° |
| 2026-05-06 10:15 | -6.20198 | 107.41725 | 20655 ft | 392 kts | 113° |
| 2026-05-06 10:16 | -6.21284 | 107.44217 | 21102 ft | 394 kts | 113° |
| 2026-05-06 10:16 | -6.22396 | 107.46771 | 21342 ft | 402 kts | 113° |
| 2026-05-06 10:16 | -6.23523 | 107.49357 | 21755 ft | 405 kts | 113° |
| 2026-05-06 10:16 | -6.24656 | 107.51957 | 22177 ft | 408 kts | 113° |
| 2026-05-06 10:17 | -6.25798 | 107.54579 | 22575 ft | 411 kts | 113° |
| 2026-05-06 10:17 | -6.26947 | 107.57219 | 22954 ft | 414 kts | 113° |
| 2026-05-06 10:17 | -6.28104 | 107.59874 | 23413 ft | 416 kts | 113° |
| 2026-05-06 10:17 | -6.29266 | 107.62544 | 23710 ft | 419 kts | 113° |
| 2026-05-06 10:18 | -6.30435 | 107.65229 | 24045 ft | 421 kts | 113° |
| 2026-05-06 10:18 | -6.31613 | 107.67933 | 24382 ft | 423 kts | 113° |
| 2026-05-06 10:18 | -6.32794 | 107.70649 | 24700 ft | 425 kts | 113° |
| 2026-05-06 10:18 | -6.33982 | 107.73380 | 25020 ft | 428 kts | 113° |
| 2026-05-06 10:19 | -6.35156 | 107.76135 | 25336 ft | 430 kts | 109° |
| 2026-05-06 10:19 | -6.35963 | 107.79029 | 25646 ft | 431 kts | 103° |
| 2026-05-06 10:19 | -6.36661 | 107.81966 | 25936 ft | 434 kts | 103° |
| 2026-05-06 10:19 | -6.37353 | 107.84925 | 26256 ft | 435 kts | 103° |
| 2026-05-06 10:20 | -6.38053 | 107.87893 | 26559 ft | 437 kts | 103° |
| 2026-05-06 10:20 | -6.38761 | 107.90870 | 26828 ft | 440 kts | 103° |
| 2026-05-06 10:20 | -6.39480 | 107.93872 | 27121 ft | 442 kts | 103° |
| 2026-05-06 10:20 | -6.40202 | 107.96880 | 27410 ft | 444 kts | 103° |
| 2026-05-06 10:21 | -6.40928 | 107.99903 | 27686 ft | 446 kts | 103° |
| 2026-05-06 10:21 | -6.41656 | 108.02937 | 27958 ft | 448 kts | 103° |
| 2026-05-06 10:21 | -6.42390 | 108.05991 | 28240 ft | 450 kts | 103° |
| 2026-05-06 10:21 | -6.43123 | 108.09048 | 28501 ft | 452 kts | 103° |
| 2026-05-06 10:22 | -6.43861 | 108.12125 | 28751 ft | 454 kts | 103° |
| 2026-05-06 10:22 | -6.44603 | 108.15219 | 28999 ft | 456 kts | 103° |
| 2026-05-06 10:22 | -6.45346 | 108.18316 | 29250 ft | 457 kts | 103° |
| 2026-05-06 10:22 | -6.46083 | 108.21394 | 29470 ft | 460 kts | 103° |
| 2026-05-06 10:23 | -6.46832 | 108.24521 | 29733 ft | 461 kts | 103° |
| 2026-05-06 10:23 | -6.47584 | 108.27663 | 29946 ft | 463 kts | 103° |
| 2026-05-06 10:23 | -6.48338 | 108.30820 | 30175 ft | 465 kts | 103° |
| 2026-05-06 10:23 | -6.49094 | 108.33983 | 30383 ft | 467 kts | 103° |
| 2026-05-06 10:24 | -6.49855 | 108.37164 | 30617 ft | 468 kts | 103° |
| 2026-05-06 10:24 | -6.50618 | 108.40354 | 30839 ft | 470 kts | 103° |
| 2026-05-06 10:24 | -6.51382 | 108.43550 | 31103 ft | 470 kts | 103° |
| 2026-05-06 10:24 | -6.52147 | 108.46748 | 31403 ft | 470 kts | 103° |
| 2026-05-06 10:25 | -6.52911 | 108.49943 | 31704 ft | 469 kts | 103° |
| 2026-05-06 10:25 | -6.53673 | 108.53134 | 31992 ft | 469 kts | 103° |
| 2026-05-06 10:25 | -6.54436 | 108.56323 | 32287 ft | 469 kts | 103° |
| 2026-05-06 10:25 | -6.55196 | 108.59508 | 32553 ft | 469 kts | 103° |
| 2026-05-06 10:26 | -6.55957 | 108.62694 | 32826 ft | 468 kts | 103° |
| 2026-05-06 10:26 | -6.56717 | 108.65876 | 33096 ft | 468 kts | 103° |
| 2026-05-06 10:26 | -6.57476 | 108.69056 | 33376 ft | 467 kts | 103° |
| 2026-05-06 10:26 | -6.58233 | 108.72228 | 33632 ft | 467 kts | 103° |
| 2026-05-06 10:27 | -6.58990 | 108.75404 | 33866 ft | 467 kts | 103° |
| 2026-05-06 10:27 | -6.59748 | 108.78581 | 34096 ft | 466 kts | 103° |
| 2026-05-06 10:27 | -6.60503 | 108.81748 | 34316 ft | 466 kts | 103° |
| 2026-05-06 10:27 | -6.61257 | 108.84912 | 34517 ft | 465 kts | 103° |
| 2026-05-06 10:28 | -6.62010 | 108.88075 | 34720 ft | 465 kts | 103° |
| 2026-05-06 10:28 | -6.62764 | 108.91237 | 34821 ft | 465 kts | 103° |
| 2026-05-06 10:28 | -6.64269 | 108.97558 | 34822 ft | 464 kts | 103° |
| 2026-05-06 10:29 | -6.65761 | 109.03827 | 34823 ft | 464 kts | 103° |
| 2026-05-06 10:29 | -6.67261 | 109.10136 | 34821 ft | 464 kts | 103° |
| 2026-05-06 10:30 | -6.68764 | 109.16458 | 34820 ft | 464 kts | 103° |
| 2026-05-06 10:30 | -6.70264 | 109.22774 | 34816 ft | 464 kts | 103° |
| 2026-05-06 10:31 | -6.71760 | 109.29077 | 34812 ft | 464 kts | 103° |
| 2026-05-06 10:31 | -6.73258 | 109.35389 | 34809 ft | 464 kts | 103° |
| 2026-05-06 10:32 | -6.74753 | 109.41697 | 34800 ft | 464 kts | 103° |
| 2026-05-06 10:32 | -6.76248 | 109.48006 | 34801 ft | 464 kts | 103° |
| 2026-05-06 10:33 | -6.77743 | 109.54318 | 34797 ft | 464 kts | 103° |
| 2026-05-06 10:33 | -6.79237 | 109.60633 | 34802 ft | 464 kts | 103° |
| 2026-05-06 10:34 | -6.80722 | 109.66910 | 34796 ft | 464 kts | 103° |
| 2026-05-06 10:34 | -6.82216 | 109.73235 | 34801 ft | 465 kts | 103° |
| 2026-05-06 10:35 | -6.83712 | 109.79568 | 34809 ft | 465 kts | 103° |
| 2026-05-06 10:35 | -6.85207 | 109.85902 | 34809 ft | 466 kts | 103° |
| 2026-05-06 10:36 | -6.86704 | 109.92248 | 34807 ft | 466 kts | 103° |
| 2026-05-06 10:36 | -6.88202 | 109.98601 | 34809 ft | 467 kts | 103° |
| 2026-05-06 10:37 | -6.89699 | 110.04955 | 34807 ft | 467 kts | 103° |
| 2026-05-06 10:37 | -6.91197 | 110.11314 | 34801 ft | 467 kts | 103° |
| 2026-05-06 10:38 | -6.92693 | 110.17673 | 34792 ft | 467 kts | 103° |
| 2026-05-06 10:38 | -6.94190 | 110.24037 | 34791 ft | 467 kts | 103° |
| 2026-05-06 10:39 | -6.95685 | 110.30400 | 34810 ft | 467 kts | 103° |
| 2026-05-06 10:39 | -6.97101 | 110.36775 | 34807 ft | 467 kts | 98° |
| 2026-05-06 10:40 | -6.97571 | 110.43279 | 34808 ft | 466 kts | 90° |
| 2026-05-06 10:40 | -6.97678 | 110.49798 | 34799 ft | 466 kts | 90° |
| 2026-05-06 10:41 | -6.97800 | 110.56268 | 34798 ft | 465 kts | 90° |
| 2026-05-06 10:41 | -6.97919 | 110.62775 | 34795 ft | 465 kts | 90° |
| 2026-05-06 10:42 | -6.98035 | 110.69286 | 34782 ft | 465 kts | 90° |
| 2026-05-06 10:42 | -6.98149 | 110.75787 | 34779 ft | 465 kts | 90° |
| 2026-05-06 10:43 | -6.98263 | 110.82287 | 34780 ft | 464 kts | 90° |
| 2026-05-06 10:44 | -6.98432 | 110.92034 | 34779 ft | 464 kts | 90° |
| 2026-05-06 10:44 | -6.98543 | 110.98515 | 34407 ft | 462 kts | 90° |
| 2026-05-06 10:44 | -6.98599 | 111.01756 | 33736 ft | 465 kts | 90° |
| 2026-05-06 10:45 | -6.98654 | 111.05029 | 32764 ft | 471 kts | 90° |
| 2026-05-06 10:45 | -6.98709 | 111.08350 | 31711 ft | 478 kts | 90° |
| 2026-05-06 10:45 | -6.98765 | 111.11714 | 30704 ft | 484 kts | 90° |
| 2026-05-06 10:45 | -6.98822 | 111.15107 | 29794 ft | 486 kts | 91° |
| 2026-05-06 10:46 | -6.98879 | 111.18508 | 28815 ft | 486 kts | 91° |
| 2026-05-06 10:46 | -6.98936 | 111.21896 | 28129 ft | 481 kts | 91° |
| 2026-05-06 10:46 | -6.98992 | 111.25244 | 27476 ft | 476 kts | 91° |
| 2026-05-06 10:46 | -6.99047 | 111.28556 | 26827 ft | 471 kts | 91° |
| 2026-05-06 10:47 | -6.99101 | 111.31832 | 26209 ft | 466 kts | 91° |
| 2026-05-06 10:47 | -6.99153 | 111.35052 | 25904 ft | 453 kts | 91° |
| 2026-05-06 10:47 | -6.99204 | 111.38167 | 25809 ft | 437 kts | 91° |
| 2026-05-06 10:47 | -6.99385 | 111.41159 | 25793 ft | 424 kts | 97° |
| 2026-05-06 10:48 | -6.99908 | 111.44114 | 25796 ft | 434 kts | 103° |
| 2026-05-06 10:48 | -7.00727 | 111.47058 | 25792 ft | 437 kts | 106° |
| 2026-05-06 10:48 | -7.01567 | 111.49993 | 25797 ft | 436 kts | 105° |
| 2026-05-06 10:48 | -7.02400 | 111.52928 | 25797 ft | 436 kts | 105° |
| 2026-05-06 10:49 | -7.03219 | 111.55822 | 25796 ft | 436 kts | 105° |
| 2026-05-06 10:49 | -7.04048 | 111.58754 | 25796 ft | 436 kts | 105° |
| 2026-05-06 10:49 | -7.04878 | 111.61690 | 25796 ft | 436 kts | 105° |
| 2026-05-06 10:49 | -7.05708 | 111.64620 | 25669 ft | 434 kts | 105° |
| 2026-05-06 10:50 | -7.06536 | 111.67546 | 25189 ft | 435 kts | 105° |
| 2026-05-06 10:50 | -7.07368 | 111.70487 | 24400 ft | 440 kts | 105° |
| 2026-05-06 10:50 | -7.08213 | 111.73471 | 23444 ft | 447 kts | 105° |
| 2026-05-06 10:50 | -7.09072 | 111.76510 | 22207 ft | 456 kts | 105° |
| 2026-05-06 10:51 | -7.09948 | 111.79609 | 20931 ft | 464 kts | 106° |
| 2026-05-06 10:51 | -7.10832 | 111.82737 | 20015 ft | 464 kts | 106° |
| 2026-05-06 10:51 | -7.11711 | 111.85847 | 19275 ft | 460 kts | 106° |
| 2026-05-06 10:51 | -7.12582 | 111.88930 | 18541 ft | 455 kts | 106° |
| 2026-05-06 10:52 | -7.13154 | 111.90953 | 18062 ft | 452 kts | 106° |
| 2026-05-06 10:52 | -7.14009 | 111.93980 | 17315 ft | 446 kts | 106° |
| 2026-05-06 10:52 | -7.14852 | 111.96966 | 16603 ft | 440 kts | 106° |
| 2026-05-06 10:52 | -7.15732 | 111.99891 | 15988 ft | 432 kts | 110° |
| 2026-05-06 10:53 | -7.16860 | 112.02624 | 15775 ft | 414 kts | 114° |
| 2026-05-06 10:53 | -7.17979 | 112.05225 | 15597 ft | 396 kts | 114° |
| 2026-05-06 10:53 | -7.19033 | 112.07698 | 15381 ft | 373 kts | 114° |
| 2026-05-06 10:53 | -7.20026 | 112.10032 | 15169 ft | 352 kts | 114° |
| 2026-05-06 10:54 | -7.20967 | 112.12242 | 15040 ft | 335 kts | 114° |
| 2026-05-06 10:54 | -7.21869 | 112.14355 | 14932 ft | 323 kts | 114° |
| 2026-05-06 10:54 | -7.22739 | 112.16391 | 14827 ft | 310 kts | 114° |
| 2026-05-06 10:54 | -7.23575 | 112.18347 | 14730 ft | 298 kts | 114° |
| 2026-05-06 10:55 | -7.24638 | 112.20835 | 14427 ft | 290 kts | 114° |
| 2026-05-06 10:55 | -7.25178 | 112.22098 | 14121 ft | 292 kts | 114° |
| 2026-05-06 10:55 | -7.25985 | 112.23986 | 13679 ft | 294 kts | 114° |
| 2026-05-06 10:55 | -7.26798 | 112.25887 | 13180 ft | 297 kts | 114° |
| 2026-05-06 10:56 | -7.27619 | 112.27807 | 12685 ft | 299 kts | 113° |
| 2026-05-06 10:56 | -7.28444 | 112.29738 | 12186 ft | 301 kts | 113° |
| 2026-05-06 10:56 | -7.29272 | 112.31680 | 11705 ft | 303 kts | 112° |
| 2026-05-06 10:56 | -7.29902 | 112.33676 | 11232 ft | 304 kts | 102° |
| 2026-05-06 10:57 | -7.30296 | 112.35738 | 10934 ft | 295 kts | 101° |
| 2026-05-06 10:57 | -7.30697 | 112.37758 | 10350 ft | 295 kts | 101° |
| 2026-05-06 10:57 | -7.31108 | 112.39784 | 9709 ft | 296 kts | 101° |
| 2026-05-06 10:57 | -7.31521 | 112.41817 | 8991 ft | 297 kts | 101° |
| 2026-05-06 10:58 | -7.31936 | 112.43870 | 8191 ft | 301 kts | 101° |
| 2026-05-06 10:58 | -7.32355 | 112.45948 | 7435 ft | 304 kts | 102° |
| 2026-05-06 10:58 | -7.32777 | 112.48044 | 6688 ft | 306 kts | 102° |
| 2026-05-06 10:58 | -7.33201 | 112.50152 | 5934 ft | 308 kts | 102° |
| 2026-05-06 10:59 | -7.33628 | 112.52267 | 5159 ft | 309 kts | 102° |
| 2026-05-06 10:59 | -7.34054 | 112.54385 | 4391 ft | 308 kts | 101° |
| 2026-05-06 10:59 | -7.34432 | 112.56509 | 3628 ft | 308 kts | 99° |
| 2026-05-06 10:59 | -7.34760 | 112.58611 | 3081 ft | 300 kts | 98° |
| 2026-05-06 11:00 | -7.35092 | 112.60697 | 2420 ft | 303 kts | 99° |
| 2026-05-06 11:00 | -7.35425 | 112.62772 | 1943 ft | 295 kts | 98° |
| 2026-05-06 11:00 | -7.35752 | 112.64810 | 1492 ft | 295 kts | 99° |
| 2026-05-06 11:00 | -7.36074 | 112.66810 | 1362 ft | 282 kts | 99° |
| 2026-05-06 11:01 | -7.36375 | 112.68707 | 1290 ft | 267 kts | 98° |
| 2026-05-06 11:01 | -7.36659 | 112.70511 | 1027 ft | 254 kts | 99° |
| 2026-05-06 11:01 | -7.36919 | 112.72199 | 809 ft | 234 kts | 98° |
| 2026-05-06 11:01 | -7.37166 | 112.73755 | 598 ft | 218 kts | 99° |
| 2026-05-06 11:02 | -7.37421 | 112.75163 | 466 ft | 192 kts | 100° |
| 2026-05-06 11:02 | -7.37627 | 112.76387 | 291 ft | 159 kts | 97° |
| 2026-05-06 11:02 | -7.37779 | 112.77463 | 108 ft | 169 kts | 99° |
| 2026-05-06 11:02 | -7.37965 | 112.78535 | 20 ft | 141 kts | 99° |
| 2026-05-06 11:03 | -7.38077 | 112.79256 | 19 ft | 80 kts | 98° |
| 2026-05-06 11:03 | -7.38146 | 112.79692 | 16 ft | 54 kts | 99° |
| 2026-05-06 11:03 | -7.38188 | 112.79966 | 15 ft | 24 kts | 87° |
| 2026-05-06 11:03 | -7.38084 | 112.80035 | 17 ft | 18 kts | 4° |
| 2026-05-06 11:04 | -7.38015 | 112.79958 | 16 ft | 16 kts | 262° |
| 2026-05-06 11:04 | -7.38003 | 112.79874 | 16 ft | 13 kts | 293° |
| 2026-05-06 11:04 | -7.37942 | 112.79788 | 17 ft | 16 kts | 345° |
| 2026-05-06 11:04 | -7.37815 | 112.79800 | 17 ft | 20 kts | 13° |
| 2026-05-06 11:05 | -7.37737 | 112.79773 | 17 ft | 13 kts | 275° |
| 2026-05-06 11:05 | -7.37709 | 112.79697 | 18 ft | 6 kts | 334° |
| 2026-05-06 11:05 | -7.37677 | 112.79703 | 18 ft | 6 kts | 9° |
| 2026-05-06 11:05 | -7.37624 | 112.79711 | 17 ft | 6 kts | 9° |
| 2026-05-06 11:06 | -7.37623 | 112.79711 | 17 ft | 0 kts | 9° |